ZBSJ Airport Information

Runway Information
Runway 15 Length 11155 ft width 148 ft
Elevation 233 ft Threshold 0 ft Heading 147
Runway 33 Length 11155 ft Width 148 ft
Elevation 220 ft Threshold 0 ft Heading 327
Airport Frequencies
Type TWR Name SHIJIAZHUA Frequency 118.35 MHZ
Airport Navaids
Type NDB Name Wuji Frequency 272 KHZ
Type NDB Name Xingtang Frequency 235 KHZ
Type VOR-DME Name Zhengding Frequency 117700 KHZ
Airport Weather Information & NOTAM
ADDS - METARS form results

(1732 UTC 13 July 2020)
Data provider http://aviationweather.gov/metar/data/
 
METAR text: ZBSJ 131700Z 13002MPS 7000 NSC 24/22 Q1006 NOSIG
Conditions at: ZBSJ (ZHENGDING , CN) observed 1700 UTC 13 July 2020
Temperature: 24.0°C (75°F)
Dewpoint: 22.0°C (72°F) [RH = 89%]
Pressure (altimeter): 29.70 inches Hg (1006.0 mb)
Winds: from the SE (130 degrees) at 5 MPH (4 knots; 2.1 m/s)
Visibility: 4 miles ( 7 km)
Ceiling: at least 12,000 feet AGL
Clouds: sky clear below 12,000 feet AGL
Weather: no significant weather observed at this time

Forecast for: ZBSJ (ZHENGDING , CN)
Text: TAF ZBSJ 131501Z 1318/1418 15004MPS 4000 BR NSC TX30/1407Z TN20/1321Z
Forecast period: 1800 UTC 13 July 2020 to 1800 UTC 14 July 2020
Forecast type: FROM: standard forecast or significant change
Winds: from the SSE (150 degrees) at 9 MPH (8 knots; 4.1 m/s)
Visibility: 2.49 miles (4.01 km)
Ceiling: unknown
Clouds: missing
Weather: BR  (mist)